Time;durP1;ratioP1;P1;durP2;ratioP2;P2;SDS_P1;SDS_P2;PMS_P1;PMS_P2;Temp;Humidity;BMP_temperature;BMP_pressure;BME280_temperature;BME280_humidity;BME280_pressure;Samples;Min_cycle;Max_cycle;Signal;HPM_P1;HPM_P2
2021/08/15 00:01:13;;;;;;;8.35;3.63;;;;;;;17.14;81.95;101843.94;4941277;29;20027;-82
2021/08/15 00:03:43;;;;;;;8.57;3.92;;;;;;;17.07;82.39;101861.63;4930613;29;20043;-81
2021/08/15 00:06:09;;;;;;;6.18;3.17;;;;;;;16.97;82.79;101849.13;4945596;29;20023;-84
2021/08/15 00:08:38;;;;;;;8.73;3.60;;;;;;;16.85;83.33;101842.84;4944069;29;20032;-85
2021/08/15 00:11:05;;;;;;;9.10;3.60;;;;;;;16.79;83.63;101834.84;4948576;29;20509;-80
2021/08/15 00:13:36;;;;;;;7.20;3.53;;;;;;;16.71;83.59;101823.25;4945621;29;20043;-82
2021/08/15 00:16:44;;;;;;;8.38;3.97;;;;;;;16.62;84.03;101816.09;4953265;29;20035;-82
2021/08/15 00:19:09;;;;;;;6.60;3.28;;;;;;;16.51;84.67;101812.50;4945366;28;20035;-83
2021/08/15 00:21:37;;;;;;;14.02;3.90;;;;;;;16.46;84.47;101819.53;4940345;28;20050;-83
2021/08/15 00:24:22;;;;;;;6.18;3.72;;;;;;;16.40;84.91;101831.00;4945128;28;20446;-83
2021/08/15 00:27:11;;;;;;;10.43;3.55;;;;;;;16.37;85.58;101836.28;4946563;28;20059;-83
2021/08/15 00:29:36;;;;;;;10.43;3.00;;;;;;;16.38;85.29;101838.06;4953725;28;20031;-80
2021/08/15 00:32:22;;;;;;;6.70;2.92;;;;;;;16.43;85.38;101828.38;4955040;28;20309;-85
2021/08/15 00:34:50;;;;;;;6.80;2.60;;;;;;;16.46;84.93;101815.09;4941001;28;20095;-86
2021/08/15 00:37:16;;;;;;;6.82;2.70;;;;;;;16.47;84.92;101816.88;4936372;28;20035;-84
2021/08/15 00:39:44;;;;;;;9.02;2.65;;;;;;;16.49;84.99;101804.53;4937160;29;20032;-84
2021/08/15 00:42:10;;;;;;;6.85;2.65;;;;;;;16.52;84.99;101807.19;4939387;28;20028;-80
2021/08/15 00:44:56;;;;;;;8.00;2.85;;;;;;;16.56;84.19;101809.84;4938321;29;20031;-85
2021/08/15 00:47:24;;;;;;;7.30;3.15;;;;;;;16.54;84.42;101808.97;4947861;28;20031;-83
2021/08/15 00:49:49;;;;;;;6.65;3.17;;;;;;;16.48;84.43;101804.47;4954200;28;20039;-82
2021/08/15 00:52:35;;;;;;;6.68;2.53;;;;;;;16.45;84.59;101805.34;4948822;28;20027;-81
2021/08/15 00:55:09;;;;;;;6.00;2.75;;;;;;;16.44;85.08;101805.34;4943656;28;20032;-81
2021/08/15 00:57:36;;;;;;;8.73;3.33;;;;;;;16.41;84.93;101808.84;4943591;28;20055;-85
2021/08/15 01:00:21;;;;;;;8.48;2.58;;;;;;;16.43;85.25;101811.53;4940075;29;20028;-84
2021/08/15 01:02:47;;;;;;;6.18;2.58;;;;;;;16.44;85.00;101811.56;4945782;29;20039;-81
2021/08/15 01:05:14;;;;;;;5.95;2.40;;;;;;;16.49;85.00;101807.19;4954633;28;20054;-84
2021/08/15 01:07:42;;;;;;;5.03;3.03;;;;;;;16.54;84.54;101795.69;4940404;28;20040;-80
2021/08/15 01:10:28;;;;;;;8.23;3.30;;;;;;;16.59;84.13;101788.63;4943444;29;20027;-79
2021/08/15 01:12:53;;;;;;;3.35;2.20;;;;;;;16.61;84.15;101793.06;4946630;28;20051;-81
2021/08/15 01:15:23;;;;;;;5.53;2.50;;;;;;;16.64;84.07;101786.88;4946178;28;20499;-81
2021/08/15 01:17:54;;;;;;;7.75;2.45;;;;;;;16.64;84.05;101776.25;4951845;29;20494;-85
2021/08/15 01:20:19;;;;;;;9.70;2.72;;;;;;;16.65;84.02;101772.72;4944563;28;20024;-86
2021/08/15 01:22:47;;;;;;;6.20;2.60;;;;;;;16.62;84.26;101768.28;4952778;28;20046;-82
2021/08/15 01:25:17;;;;;;;4.65;2.35;;;;;;;16.64;83.90;101768.28;4953311;28;20032;-81
2021/08/15 01:28:03;;;;;;;12.30;2.88;;;;;;;16.65;83.62;101768.28;4950586;28;20063;-82
2021/08/15 01:30:28;;;;;;;5.47;2.58;;;;;;;16.67;83.85;101765.63;4936562;28;20416;-83
2021/08/15 01:32:56;;;;;;;6.07;2.75;;;;;;;16.68;84.03;101771.00;4936772;28;20038;-84
2021/08/15 01:35:21;;;;;;;5.82;2.30;;;;;;;16.68;83.70;101767.41;4949514;29;20065;-81
2021/08/15 01:37:54;;;;;;;3.97;2.42;;;;;;;16.69;84.06;101766.53;4948813;28;20043;-83
2021/08/15 01:40:39;;;;;;;6.47;3.33;;;;;;;16.69;83.87;101755.91;4941360;29;20399;-84
2021/08/15 01:43:07;;;;;;;7.25;2.83;;;;;;;16.66;83.73;101755.91;4955632;29;20042;-84
2021/08/15 01:45:32;;;;;;;7.25;2.67;;;;;;;16.62;84.05;101756.78;4945295;28;20039;-83
2021/08/15 01:47:58;;;;;;;7.43;2.72;;;;;;;16.61;83.75;101760.31;4941319;28;20078;-82
2021/08/15 01:50:29;;;;;;;7.30;2.53;;;;;;;16.58;84.45;101768.25;4942165;29;20043;-82
2021/08/15 01:52:54;;;;;;;6.43;2.50;;;;;;;16.57;84.30;101764.69;4942032;29;20035;-81
2021/08/15 01:55:22;;;;;;;6.10;2.60;;;;;;;16.53;84.18;101752.28;4953228;28;20031;-85
2021/08/15 01:57:47;;;;;;;4.47;2.40;;;;;;;16.48;84.48;101770.84;4956964;28;20027;-80
2021/08/15 02:00:15;;;;;;;6.72;2.58;;;;;;;16.44;84.91;101762.81;4922362;29;20080;-84
2021/08/15 02:03:02;;;;;;;6.07;3.03;;;;;;;16.42;84.82;101760.16;4939845;29;20063;-80
2021/08/15 02:05:30;;;;;;;7.20;2.67;;;;;;;16.39;84.83;101741.56;4938924;29;20040;-83
2021/08/15 02:07:56;;;;;;;6.97;2.55;;;;;;;16.34;85.40;101741.50;4940852;28;20027;-84
2021/08/15 02:10:25;;;;;;;6.47;2.78;;;;;;;16.32;85.23;101731.78;4938870;29;20035;-81
2021/08/15 02:12:52;;;;;;;8.27;2.95;;;;;;;16.29;85.19;101721.09;4930303;29;20039;-83
2021/08/15 02:15:19;;;;;;;5.93;3.13;;;;;;;16.27;85.77;101725.53;4947958;28;20050;-86
2021/08/15 02:18:04;;;;;;;8.70;2.80;;;;;;;16.26;85.64;101711.34;4935057;29;20059;-78
2021/08/15 02:20:50;;;;;;;6.00;2.60;;;;;;;16.26;85.67;101708.69;4956072;28;20070;-81
2021/08/15 02:23:17;;;;;;;8.00;3.55;;;;;;;16.22;86.03;101704.25;4955853;29;20043;-84
2021/08/15 02:25:49;;;;;;;6.95;2.70;;;;;;;16.23;85.79;101716.66;4942996;29;20091;-80
2021/08/15 02:28:18;;;;;;;5.10;2.90;;;;;;;16.23;85.88;101705.16;4939890;29;20556;-80
2021/08/15 02:30:43;;;;;;;7.50;3.13;;;;;;;16.24;85.58;101702.50;4939307;28;20046;-80
2021/08/15 02:33:09;;;;;;;7.13;2.90;;;;;;;16.24;86.06;101707.81;4954540;29;20101;-82
2021/08/15 02:35:34;;;;;;;8.38;3.55;;;;;;;16.28;85.60;101692.81;4942986;28;20443;-83
2021/08/15 02:38:03;;;;;;;7.32;3.80;;;;;;;16.30;85.58;101677.75;4943270;29;20376;-82
2021/08/15 02:40:28;;;;;;;15.65;3.47;;;;;;;16.30;85.32;101667.13;4950114;29;20039;-82
2021/08/15 02:43:14;;;;;;;8.63;3.00;;;;;;;16.26;85.52;101678.59;4941857;28;20028;-80
2021/08/15 02:45:39;;;;;;;7.97;3.50;;;;;;;16.24;85.29;101675.06;4953380;28;20035;-82
2021/08/15 02:48:05;;;;;;;8.07;3.20;;;;;;;16.21;85.99;101685.66;4948190;29;20140;-78
2021/08/15 02:50:31;;;;;;;10.38;3.78;;;;;;;16.23;86.10;101683.91;4945960;28;20027;-82
2021/08/15 02:52:56;;;;;;;9.10;3.80;;;;;;;16.25;85.83;101660.88;4947419;28;20027;-81
2021/08/15 02:55:22;;;;;;;7.15;3.42;;;;;;;16.24;85.74;101680.38;4939623;28;20035;-80
2021/08/15 02:58:08;;;;;;;10.50;4.22;;;;;;;16.23;86.30;101683.91;4945521;28;20042;-84
2021/08/15 03:00:36;;;;;;;8.85;3.65;;;;;;;16.17;86.35;101684.75;4943404;29;20047;-81
2021/08/15 03:03:07;;;;;;;6.60;3.35;;;;;;;16.19;86.34;101698.91;4938954;28;20074;-78
2021/08/15 03:05:52;;;;;;;9.85;4.00;;;;;;;16.21;86.76;101717.50;4944554;28;20095;-81
2021/08/15 03:08:18;;;;;;;8.80;3.88;;;;;;;16.21;86.86;101709.53;4946431;28;20065;-80
2021/08/15 03:10:43;;;;;;;10.13;4.00;;;;;;;16.22;86.87;101693.63;4944626;28;20550;-86
2021/08/15 03:13:09;;;;;;;9.68;4.43;;;;;;;16.22;86.93;101698.06;4950852;28;20448;-80
2021/08/15 03:15:37;;;;;;;10.68;3.80;;;;;;;16.23;86.91;101691.88;4943065;29;20066;-79
2021/08/15 03:18:26;;;;;;;12.07;3.97;;;;;;;16.25;86.86;101692.75;4942907;29;20046;-84
2021/08/15 03:20:51;;;;;;;14.18;4.35;;;;;;;16.25;87.03;101684.78;4943104;29;20035;-82
2021/08/15 03:23:17;;;;;;;8.88;4.40;;;;;;;16.25;87.31;101682.13;4949337;28;20030;-80
2021/08/15 03:26:02;;;;;;;11.70;4.97;;;;;;;16.28;87.17;101683.06;4937524;28;20103;-79
2021/08/15 03:28:28;;;;;;;13.45;4.88;;;;;;;16.30;87.26;101685.72;4943251;28;20461;-81
2021/08/15 03:30:53;;;;;;;12.88;4.28;;;;;;;16.34;87.09;101687.50;4948465;29;20043;-80
2021/08/15 03:33:26;;;;;;;12.82;4.72;;;;;;;16.36;87.05;101675.16;4930473;29;20162;-79
2021/08/15 03:35:51;;;;;;;7.93;3.90;;;;;;;16.37;87.21;101671.56;4939673;28;20019;-79
2021/08/15 03:38:17;;;;;;;8.65;3.90;;;;;;;16.38;86.99;101670.72;4940106;28;20417;-81
2021/08/15 03:40:45;;;;;;;11.43;4.80;;;;;;;16.38;87.55;101668.06;4955061;28;20023;-77
2021/08/15 03:43:10;;;;;;;9.48;4.90;;;;;;;16.36;87.57;101661.84;4937372;28;20559;-81
2021/08/15 03:45:38;;;;;;;10.15;4.35;;;;;;;16.38;87.35;101660.09;4946177;28;20028;-81
2021/08/15 03:48:09;;;;;;;8.52;4.07;;;;;;;16.40;87.72;101654.78;4943680;28;20131;-83
2021/08/15 03:50:43;;;;;;;12.52;4.85;;;;;;;16.38;87.94;101651.25;4938489;28;20047;-79
2021/08/15 03:53:09;;;;;;;9.13;4.90;;;;;;;16.37;87.71;101655.66;4939613;29;20099;-82
2021/08/15 03:55:34;;;;;;;12.52;5.63;;;;;;;16.35;87.88;101652.09;4939729;29;20023;-82
2021/08/15 03:58:00;;;;;;;15.52;4.95;;;;;;;16.36;88.19;101656.56;4953431;28;20035;-79
2021/08/15 04:00:25;;;;;;;14.90;5.20;;;;;;;16.39;88.35;101666.31;4938442;28;20027;-80
2021/08/15 04:02:53;;;;;;;11.88;4.55;;;;;;;16.39;88.11;101648.59;4935730;28;20447;-82
2021/08/15 04:05:19;;;;;;;13.32;4.70;;;;;;;16.41;88.00;101657.44;4937141;28;20529;-82
2021/08/15 04:07:44;;;;;;;10.45;5.10;;;;;;;16.43;87.89;101655.69;4937875;28;20043;-81
2021/08/15 04:10:30;;;;;;;14.00;4.72;;;;;;;16.44;88.00;101645.94;4943207;29;20031;-84
2021/08/15 04:12:55;;;;;;;13.73;4.57;;;;;;;16.43;88.21;101633.56;4934073;29;20039;-80
2021/08/15 04:15:21;;;;;;;12.55;4.88;;;;;;;16.41;88.14;101632.66;4946977;28;20034;-82
2021/08/15 04:17:46;;;;;;;13.00;5.05;;;;;;;16.37;88.54;101633.53;4944012;29;20490;-80
2021/08/15 04:20:12;;;;;;;13.45;4.80;;;;;;;16.35;88.78;101641.47;4939714;28;20087;-83
2021/08/15 04:22:58;;;;;;;12.73;5.07;;;;;;;16.37;88.63;101637.06;4937090;28;20054;-83
2021/08/15 04:25:23;;;;;;;13.85;5.20;;;;;;;16.37;88.63;101631.72;4940196;28;20050;-80
2021/08/15 04:27:49;;;;;;;13.82;5.18;;;;;;;16.33;88.98;101628.19;4941533;28;20039;-79
2021/08/15 04:30:34;;;;;;;11.95;5.43;;;;;;;16.29;89.21;101622.84;4934880;28;20122;-80
2021/08/15 04:32:59;;;;;;;13.13;5.75;;;;;;;16.28;89.50;101619.31;4938775;28;20035;-79
2021/08/15 04:35:45;;;;;;;15.98;5.78;;;;;;;16.24;90.03;101622.84;4941360;28;20038;-79
2021/08/15 04:38:10;;;;;;;16.77;5.80;;;;;;;16.21;90.35;101621.91;4947792;29;20055;-80
2021/08/15 04:40:36;;;;;;;16.58;6.40;;;;;;;16.22;90.66;101623.69;4943420;28;20510;-82
2021/08/15 04:43:01;;;;;;;14.50;6.85;;;;;;;16.23;90.54;101617.50;4938358;28;20044;-81
2021/08/15 04:45:27;;;;;;;15.02;5.93;;;;;;;16.25;91.01;101615.75;4942169;29;20020;-83
2021/08/15 04:47:52;;;;;;;15.63;5.43;;;;;;;16.28;91.04;101616.66;4948015;28;20028;-82
2021/08/15 04:50:18;;;;;;;15.00;6.90;;;;;;;16.29;91.29;101613.13;4942663;28;20116;-82
2021/08/15 04:52:43;;;;;;;22.45;7.07;;;;;;;16.35;91.18;101614.91;4948930;28;20031;-82
2021/08/15 04:55:10;;;;;;;16.08;7.53;;;;;;;16.41;90.62;101606.09;4938095;28;20015;-81
2021/08/15 04:57:36;;;;;;;16.13;7.10;;;;;;;16.46;90.58;101607.88;4945429;28;20035;-82
2021/08/15 05:00:23;;;;;;;12.93;6.13;;;;;;;16.49;90.97;101607.91;4936933;29;20391;-78
2021/08/15 05:02:48;;;;;;;17.38;7.47;;;;;;;16.57;90.49;101604.41;4938068;29;20550;-76
2021/08/15 05:05:14;;;;;;;14.32;6.80;;;;;;;16.59;90.05;101603.53;4945418;28;20028;-79
2021/08/15 05:07:39;;;;;;;17.15;6.35;;;;;;;16.63;89.93;101602.66;4937051;28;20487;-81
2021/08/15 05:10:05;;;;;;;16.23;7.10;;;;;;;16.69;89.67;101600.00;4940335;28;20091;-80
2021/08/15 05:12:31;;;;;;;20.30;7.20;;;;;;;16.75;89.62;101599.13;4937597;29;20051;-80
2021/08/15 05:14:56;;;;;;;15.02;6.53;;;;;;;16.81;89.70;101609.78;4944808;29;20042;-80
2021/08/15 05:17:22;;;;;;;18.63;6.55;;;;;;;16.90;89.15;101602.75;4943717;28;20190;-83
2021/08/15 05:19:47;;;;;;;22.05;6.75;;;;;;;16.97;88.96;101599.22;4946415;28;20027;-79
2021/08/15 05:22:13;;;;;;;18.95;7.10;;;;;;;16.99;88.75;101592.13;4928537;29;20031;-81
2021/08/15 05:24:38;;;;;;;19.60;6.53;;;;;;;17.01;88.38;101598.34;4941331;28;20027;-82
2021/08/15 05:27:04;;;;;;;16.58;6.85;;;;;;;17.04;88.53;101601.03;4943380;29;20040;-80
2021/08/15 05:29:29;;;;;;;14.77;6.75;;;;;;;17.10;88.21;101594.81;4951130;28;20031;-80
2021/08/15 05:31:55;;;;;;;18.35;6.50;;;;;;;17.16;88.05;101594.84;4940772;28;20039;-84
2021/08/15 05:34:20;;;;;;;16.67;6.22;;;;;;;17.23;87.52;101587.72;4927238;29;20053;-79
2021/08/15 05:36:45;;;;;;;19.02;6.38;;;;;;;17.29;87.23;101590.41;4942664;29;20048;-77
2021/08/15 05:39:11;;;;;;;15.80;6.07;;;;;;;17.31;87.11;101591.31;4947905;28;20034;-78
2021/08/15 05:41:36;;;;;;;17.02;6.82;;;;;;;17.34;86.38;101586.00;4939876;28;20023;-82
2021/08/15 05:44:02;;;;;;;15.07;6.40;;;;;;;17.39;86.33;101583.31;4949477;28;20040;-80
2021/08/15 05:46:27;;;;;;;14.10;6.85;;;;;;;17.42;86.02;101580.69;4947204;29;20493;-78
2021/08/15 05:48:53;;;;;;;14.35;6.05;;;;;;;17.47;86.60;101578.88;4940579;29;20023;-81
2021/08/15 05:51:18;;;;;;;18.42;6.25;;;;;;;17.56;86.12;101583.31;4939820;29;20036;-84
2021/08/15 05:53:44;;;;;;;14.70;5.72;;;;;;;17.66;85.66;101579.75;4943014;28;20031;-81
2021/08/15 05:56:09;;;;;;;16.13;6.43;;;;;;;17.74;84.79;101575.31;4956140;29;20074;-81
2021/08/15 05:58:35;;;;;;;17.05;6.55;;;;;;;17.77;85.13;101585.06;4937606;29;20027;-80
2021/08/15 06:01:00;;;;;;;18.33;5.70;;;;;;;17.84;84.83;101573.53;4950184;29;20035;-84
2021/08/15 06:03:28;;;;;;;13.80;5.97;;;;;;;17.88;84.36;101583.28;4940415;29;20405;-84
2021/08/15 06:05:54;;;;;;;21.38;5.88;;;;;;;17.87;84.36;101578.84;4942587;29;20115;-83
2021/08/15 06:08:19;;;;;;;18.25;6.45;;;;;;;17.94;84.23;101577.09;4946149;29;20031;-84
2021/08/15 06:10:45;;;;;;;20.02;5.85;;;;;;;17.97;84.46;101583.31;4939972;28;20509;-82
2021/08/15 06:13:30;;;;;;;17.55;6.05;;;;;;;17.99;84.28;101578.84;4952367;29;20035;-83
2021/08/15 06:15:56;;;;;;;12.25;5.57;;;;;;;18.01;84.49;101586.81;4942289;28;20122;-79
2021/08/15 06:18:21;;;;;;;16.48;6.55;;;;;;;18.05;83.70;101580.59;4939262;28;20115;-79
2021/08/15 06:20:47;;;;;;;14.80;5.75;;;;;;;18.06;83.92;101585.03;4941470;29;20115;-82
2021/08/15 06:23:13;;;;;;;15.55;6.32;;;;;;;18.06;83.76;101585.03;4932885;29;20510;-82
2021/08/15 06:25:38;;;;;;;14.25;5.70;;;;;;;18.03;83.84;101585.06;4948733;28;20048;-79
2021/08/15 06:28:04;;;;;;;16.67;6.18;;;;;;;17.99;84.23;101580.63;4939843;28;20123;-80
2021/08/15 06:30:29;;;;;;;19.00;6.25;;;;;;;17.97;84.27;101579.75;4940801;28;20491;-80
2021/08/15 06:33:14;;;;;;;17.85;6.57;;;;;;;17.87;84.63;101577.06;4948788;29;20547;-78
2021/08/15 06:35:40;;;;;;;16.92;5.55;;;;;;;18.13;84.62;101572.59;4947460;28;20118;-80
2021/08/15 06:38:05;;;;;;;12.43;5.50;;;;;;;18.75;82.07;101567.88;4940688;28;20127;-81
2021/08/15 06:40:31;;;;;;;19.73;5.88;;;;;;;19.08;80.64;101567.72;4944920;29;20030;-78
2021/08/15 06:43:05;;;;;;;14.82;5.90;;;;;;;19.20;79.45;101560.47;4944785;28;20487;-78
2021/08/15 06:45:30;;;;;;;15.95;4.93;;;;;;;19.29;79.29;101561.31;4944454;29;20444;-80
2021/08/15 06:47:56;;;;;;;17.08;6.80;;;;;;;19.54;78.00;101557.53;4939672;29;20111;-80
2021/08/15 06:50:41;;;;;;;21.30;6.88;;;;;;;19.86;77.94;101559.03;4943327;29;20497;-81
2021/08/15 06:53:38;;;;;;;18.58;5.90;;;;;;;20.16;75.97;101550.69;4934153;28;20036;-79
2021/08/15 06:56:06;;;;;;;15.38;5.22;;;;;;;20.55;74.83;101549.28;4941062;28;20043;-79
2021/08/15 06:58:32;;;;;;;15.50;5.88;;;;;;;20.94;73.38;101539.84;4942661;28;20506;-81
2021/08/15 07:00:58;;;;;;;15.65;4.63;;;;;;;21.41;71.77;101534.66;4937192;28;20197;-80
2021/08/15 07:03:23;;;;;;;12.48;4.85;;;;;;;21.85;70.21;101539.22;4945432;28;20141;-82
2021/08/15 07:05:52;;;;;;;11.85;5.20;;;;;;;21.83;69.21;101542.81;4944455;28;20383;-78
2021/08/15 07:08:17;;;;;;;11.95;5.28;;;;;;;22.13;67.63;101535.97;4945658;28;20096;-80
2021/08/15 07:10:44;;;;;;;15.60;4.65;;;;;;;21.94;68.18;101539.94;4937975;28;20031;-77
2021/08/15 07:13:09;;;;;;;13.18;5.10;;;;;;;21.89;69.18;101538.25;4941519;28;20055;-77
2021/08/15 07:15:35;;;;;;;16.25;5.63;;;;;;;21.77;69.09;101548.28;4950297;28;20058;-78
2021/08/15 07:18:08;;;;;;;21.90;5.60;;;;;;;21.49;68.72;101543.41;4939114;29;20053;-78
2021/08/15 07:20:34;;;;;;;14.73;5.60;;;;;;;21.26;70.79;101554.53;4936818;29;20121;-77
2021/08/15 07:22:59;;;;;;;11.43;5.07;;;;;;;20.94;71.61;101550.56;4938640;28;20138;-84
2021/08/15 07:25:28;;;;;;;20.83;5.45;;;;;;;21.12;71.15;101550.28;4940070;28;20063;-83
2021/08/15 07:28:14;;;;;;;13.05;5.45;;;;;;;21.15;71.85;101539.53;4938313;28;20712;-80
2021/08/15 07:30:39;;;;;;;14.73;6.53;;;;;;;20.93;71.20;101546.09;4943916;28;20122;-79
2021/08/15 07:33:05;;;;;;;16.17;5.40;;;;;;;20.92;72.15;101539.88;4946015;28;20106;-80
2021/08/15 07:35:33;;;;;;;12.57;5.53;;;;;;;21.19;72.17;101545.72;4935509;28;20027;-82
2021/08/15 07:37:59;;;;;;;16.92;6.15;;;;;;;21.26;71.37;101552.72;4933711;29;20384;-81
2021/08/15 07:40:25;;;;;;;15.27;6.15;;;;;;;21.28;70.80;101544.66;4944730;28;20067;-79
2021/08/15 07:42:52;;;;;;;14.27;5.90;;;;;;;21.43;71.39;101543.50;4940100;28;20031;-78
2021/08/15 07:45:38;;;;;;;13.25;5.50;;;;;;;21.55;69.16;101541.56;4923921;29;20398;-80
2021/08/15 07:48:23;;;;;;;20.42;6.43;;;;;;;21.41;69.20;101538.19;4943418;28;20482;-80
2021/08/15 07:50:51;;;;;;;16.27;6.15;;;;;;;21.56;69.12;101532.59;4941202;28;20086;-79
2021/08/15 07:53:40;;;;;;;15.60;5.43;;;;;;;21.41;69.32;101535.50;4944697;28;20460;-78
2021/08/15 07:56:05;;;;;;;10.82;5.38;;;;;;;21.41;69.41;101542.69;4939487;28;20031;-82
2021/08/15 07:58:31;;;;;;;13.05;5.63;;;;;;;21.41;71.19;101540.00;4937368;28;20394;-78
2021/08/15 08:00:58;;;;;;;14.07;5.18;;;;;;;21.53;69.75;101540.69;4939610;29;20027;-83
2021/08/15 08:03:24;;;;;;;9.90;5.22;;;;;;;21.56;69.88;101542.44;4944744;28;20040;-79
2021/08/15 08:05:49;;;;;;;13.88;5.68;;;;;;;21.62;68.67;101542.28;4945372;28;20035;-80
2021/08/15 08:08:16;;;;;;;12.52;5.43;;;;;;;21.75;68.88;101540.28;4950576;28;20039;-79
2021/08/15 08:10:42;;;;;;;14.82;5.18;;;;;;;21.76;68.24;101530.44;4947110;28;20042;-82
2021/08/15 08:13:09;;;;;;;18.20;5.47;;;;;;;21.81;67.63;101534.81;4946120;29;20035;-78
2021/08/15 08:15:54;;;;;;;14.82;4.93;;;;;;;21.82;67.46;101525.84;4944597;28;20039;-78
2021/08/15 08:18:20;;;;;;;18.30;5.80;;;;;;;21.82;67.46;101525.84;4943968;28;20039;-82
2021/08/15 08:21:05;;;;;;;15.35;5.47;;;;;;;21.85;67.14;101528.50;4938485;29;20027;-76
2021/08/15 08:23:31;;;;;;;13.43;5.18;;;;;;;21.88;67.94;101528.44;4938493;28;20062;-81
2021/08/15 08:25:57;;;;;;;12.68;6.07;;;;;;;21.93;67.14;101522.09;4936202;28;20475;-77
2021/08/15 08:28:23;;;;;;;12.43;5.05;;;;;;;22.16;67.28;101521.63;4940266;28;20040;-80
2021/08/15 08:30:49;;;;;;;12.82;5.55;;;;;;;22.35;64.92;101519.44;4937008;29;20020;-79
2021/08/15 08:33:14;;;;;;;13.32;5.40;;;;;;;22.38;65.18;101519.38;4939536;29;20545;-79
2021/08/15 08:35:40;;;;;;;13.50;5.60;;;;;;;22.53;66.05;101518.16;4922933;29;20106;-80
2021/08/15 08:38:05;;;;;;;14.55;5.13;;;;;;;22.56;64.06;101508.25;4943525;28;20043;-78
2021/08/15 08:40:31;;;;;;;15.57;5.45;;;;;;;22.61;63.88;101502.75;4937554;28;20031;-77
2021/08/15 08:43:00;;;;;;;14.48;4.90;;;;;;;22.94;63.08;101510.06;4929264;28;20042;-80
2021/08/15 08:45:46;;;;;;;16.05;5.22;;;;;;;23.24;62.60;101506.63;4941320;29;20035;-80
2021/08/15 08:48:12;;;;;;;12.98;4.65;;;;;;;23.26;62.40;101492.28;4938054;28;20043;-79
2021/08/15 08:50:38;;;;;;;20.02;5.18;;;;;;;23.07;61.67;101506.16;4953977;28;20172;-77
2021/08/15 08:53:04;;;;;;;14.15;5.43;;;;;;;23.19;61.88;101502.31;4956668;29;20051;-79
2021/08/15 08:55:29;;;;;;;11.63;4.55;;;;;;;23.38;61.78;101500.03;4942951;28;20084;-79
2021/08/15 08:57:54;;;;;;;11.50;5.07;;;;;;;23.63;60.95;101504.72;4926675;29;20047;-80
2021/08/15 09:00:20;;;;;;;12.43;4.95;;;;;;;23.81;60.14;101501.53;4942209;28;20036;-79
2021/08/15 09:02:46;;;;;;;12.68;4.93;;;;;;;24.01;59.91;101500.09;4948286;28;20031;-77
2021/08/15 09:05:12;;;;;;;18.95;4.90;;;;;;;24.08;57.60;101485.56;4944638;28;20448;-77
2021/08/15 09:07:39;;;;;;;14.20;5.22;;;;;;;24.35;58.75;101488.31;4945199;28;20051;-78
2021/08/15 09:10:13;;;;;;;17.70;4.88;;;;;;;24.42;57.74;101481.84;4940402;28;20023;-78
2021/08/15 09:13:05;;;;;;;15.55;4.82;;;;;;;24.78;58.13;101492.38;4953507;28;20042;-79
2021/08/15 09:15:32;;;;;;;10.73;4.38;;;;;;;24.88;54.91;101477.69;4943998;28;20039;-79
2021/08/15 09:17:58;;;;;;;11.15;4.90;;;;;;;25.08;53.90;101468.06;4945528;28;20466;-80
2021/08/15 09:20:44;;;;;;;15.13;4.20;;;;;;;25.16;55.78;101476.75;4941420;28;20042;-77
2021/08/15 09:23:30;;;;;;;12.63;4.95;;;;;;;25.19;54.11;101475.75;4951233;28;20456;-85
2021/08/15 09:26:14;;;;;;;12.90;4.15;;;;;;;25.42;54.88;101475.88;4941005;28;20055;-78
2021/08/15 09:29:00;;;;;;;10.55;4.50;;;;;;;25.69;52.42;101467.75;4954087;28;20062;-81
2021/08/15 09:31:43;;;;;;;8.60;4.20;;;;;;;25.76;53.61;101479.19;4934009;29;20063;-78
2021/08/15 09:34:24;;;;;;;11.02;4.07;;;;;;;26.01;51.69;101462.94;4942792;28;20066;-78
2021/08/15 09:36:51;;;;;;;15.68;4.72;;;;;;;26.07;51.53;101461.84;4950691;28;20641;-79
2021/08/15 09:39:48;;;;;;;11.93;3.85;;;;;;;26.20;51.24;101459.56;4942306;28;20036;-77
2021/08/15 09:42:14;;;;;;;11.60;3.90;;;;;;;26.54;51.35;101452.81;4945570;28;20023;-79
2021/08/15 09:44:39;;;;;;;13.70;5.00;;;;;;;26.82;50.92;101455.28;4947703;28;20038;-79
2021/08/15 09:47:27;;;;;;;13.57;5.03;;;;;;;27.49;51.00;101449.75;4939992;28;20521;-79
2021/08/15 09:49:53;;;;;;;11.25;5.28;;;;;;;27.95;48.62;101441.34;4948508;28;20049;-79
2021/08/15 09:52:21;;;;;;;8.95;4.07;;;;;;;28.52;47.50;101442.22;4939440;29;21856;-79
2021/08/15 09:54:54;;;;;;;14.20;4.40;;;;;;;28.83;45.24;101426.31;4911392;28;20078;-77
2021/08/15 09:57:48;;;;;;;7.32;3.67;;;;;;;29.07;45.83;101440.38;4937057;29;20035;-80
2021/08/15 10:00:23;;;;;;;8.55;4.22;;;;;;;28.62;44.73;101428.22;4945770;28;20043;-82
2021/08/15 10:02:50;;;;;;;12.80;4.32;;;;;;;28.91;43.70;101426.78;4954020;28;20600;-79
2021/08/15 10:05:16;;;;;;;9.52;3.83;;;;;;;29.03;42.28;101419.81;4952586;28;20035;-85
2021/08/15 10:08:24;;;;;;;11.02;4.28;;;;;;;28.67;44.18;101424.34;4943338;28;20020;-81
2021/08/15 10:10:50;;;;;;;9.77;3.50;;;;;;;29.18;42.40;101421.75;4937070;29;20050;-81
2021/08/15 10:13:35;;;;;;;6.32;3.15;;;;;;;29.57;41.53;101420.59;4951430;28;20392;-81
2021/08/15 10:16:04;;;;;;;6.20;3.10;;;;;;;29.61;41.85;101426.72;4938316;28;20506;-81
2021/08/15 10:18:32;;;;;;;9.25;3.30;;;;;;;29.42;43.21;101418.72;4952276;28;20038;-81
2021/08/15 10:21:19;;;;;;;8.05;3.38;;;;;;;29.98;41.35;101413.88;4949750;28;20498;-80
2021/08/15 10:24:06;;;;;;;7.13;2.83;;;;;;;30.01;42.41;101427.28;4929571;29;20557;-80
2021/08/15 10:26:58;;;;;;;5.93;2.90;;;;;;;30.30;41.38;101407.56;4942269;28;20054;-81
2021/08/15 10:29:36;;;;;;;6.70;2.55;;;;;;;30.74;42.90;101409.56;4942356;28;20035;-82
2021/08/15 10:32:37;;;;;;;8.38;2.85;;;;;;;30.90;41.73;101406.78;4942867;29;20110;-84
2021/08/15 10:35:02;;;;;;;7.75;2.80;;;;;;;30.14;42.38;101403.00;4952510;28;20031;-81
2021/08/15 10:37:27;;;;;;;5.88;2.53;;;;;;;30.42;42.00;101396.00;4953988;28;20170;-79
2021/08/15 10:40:02;;;;;;;5.72;2.80;;;;;;;30.98;41.05;101390.00;4954326;28;20493;-80
2021/08/15 10:42:41;;;;;;;10.35;2.67;;;;;;;30.36;41.63;101380.94;4941131;28;20044;-79
2021/08/15 10:45:14;;;;;;;4.00;2.55;;;;;;;29.30;44.39;101400.41;4945288;28;20023;-82
2021/08/15 10:47:40;;;;;;;6.30;2.63;;;;;;;29.77;42.65;101395.06;4938152;29;20031;-80
2021/08/15 10:50:09;;;;;;;5.13;2.33;;;;;;;29.57;41.74;101382.66;4920880;29;20432;-79
2021/08/15 10:52:39;;;;;;;7.22;2.38;;;;;;;29.75;42.54;101385.28;4927790;28;20094;-83
2021/08/15 10:55:09;;;;;;;6.15;2.65;;;;;;;30.68;41.28;101366.44;4943932;28;20031;-82
2021/08/15 10:57:57;;;;;;;8.00;2.50;;;;;;;31.38;40.80;101373.97;4949197;28;20559;-83
2021/08/15 11:00:29;;;;;;;4.47;2.15;;;;;;;30.84;38.06;101359.09;4947353;28;20486;-80
2021/08/15 11:03:23;;;;;;;5.93;2.55;;;;;;;31.12;37.52;101362.91;4943441;28;20036;-80
2021/08/15 11:05:49;;;;;;;5.05;2.53;;;;;;;30.82;39.72;101365.59;4952006;28;20505;-80
2021/08/15 11:08:32;;;;;;;5.13;2.42;;;;;;;30.30;38.68;101359.56;4953733;28;20035;-83
2021/08/15 11:11:44;;;;;;;3.92;2.22;;;;;;;30.09;41.77;101372.56;4946121;28;20039;-79
2021/08/15 11:14:24;;;;;;;6.93;2.75;;;;;;;30.03;36.85;101356.63;4946399;28;20509;-79
2021/08/15 11:16:53;;;;;;;4.90;2.58;;;;;;;29.64;38.37;101355.16;4950998;28;20121;-82
2021/08/15 11:19:18;;;;;;;7.03;2.72;;;;;;;29.24;36.85;101348.22;4952571;28;20031;-79
2021/08/15 11:22:02;;;;;;;5.00;2.47;;;;;;;29.38;36.37;101344.81;4939972;28;20548;-83
2021/08/15 11:24:49;;;;;;;5.00;2.72;;;;;;;29.64;37.35;101344.31;4950964;28;20034;-80
2021/08/15 11:27:50;;;;;;;6.57;2.85;;;;;;;29.52;39.25;101354.91;4960340;28;20047;-83
2021/08/15 11:30:20;;;;;;;6.28;3.10;;;;;;;30.00;35.65;101341.38;4896176;29;20056;-79
2021/08/15 11:33:21;;;;;;;4.90;3.05;;;;;;;30.32;33.97;101325.06;5019567;28;20421;-79
2021/08/15 11:36:06;;;;;;;5.07;3.00;;;;;;;30.52;34.06;101329.34;5009315;28;20087;-81
2021/08/15 11:38:33;;;;;;;6.43;3.17;;;;;;;30.39;33.84;101317.44;5016054;28;20071;-84